Time;durP1;ratioP1;P1;durP2;ratioP2;P2;SDS_P1;SDS_P2;PMS_P1;PMS_P2;Temp;Humidity;BMP_temperature;BMP_pressure;BME280_temperature;BME280_humidity;BME280_pressure;Samples;Min_cycle;Max_cycle;Signal;HPM_P1;HPM_P2
2022/05/07 00:02:08;;;;;;;14.43;11.70;;;;;;;;;;4987943;28;20265;-81
2022/05/07 00:04:38;;;;;;;13.03;11.07;;;;;;;;;;4984319;28;20174;-81
2022/05/07 00:07:04;;;;;;;13.27;11.90;;;;;;;;;;4987356;28;20261;-81
2022/05/07 00:09:30;;;;;;;13.07;11.67;;;;;;;;;;4989791;28;20272;-81
2022/05/07 00:11:57;;;;;;;11.90;10.70;;;;;;;;;;4986874;28;20181;-81
2022/05/07 00:14:24;;;;;;;16.80;13.23;;;;;;;;;;4989344;28;20257;-81
2022/05/07 00:19:35;;;;;;;16.97;13.97;;;;;;;;;;4988629;28;20291;-81
2022/05/07 00:22:01;;;;;;;13.17;11.83;;;;;;;;;;4995566;28;20165;-80
2022/05/07 00:24:27;;;;;;;12.37;11.07;;;;;;;;;;4990978;28;20523;-81
2022/05/07 00:26:53;;;;;;;13.27;11.07;;;;;;;;;;4985541;28;20167;-82
2022/05/07 00:29:20;;;;;;;12.47;10.87;;;;;;;;;;4982740;28;20181;-82
2022/05/07 00:31:46;;;;;;;12.30;10.90;;;;;;;;;;4987668;28;20173;-82
2022/05/07 00:34:12;;;;;;;11.30;10.20;;;;;;;;;;4985735;28;20178;-82
2022/05/07 00:36:38;;;;;;;12.37;11.03;;;;;;;;;;4990305;28;20892;-83
2022/05/07 00:39:04;;;;;;;12.60;11.40;;;;;;;;;;4984678;28;20184;-80
2022/05/07 00:41:31;;;;;;;10.90;9.80;;;;;;;;;;4989369;28;20173;-81
2022/05/07 00:43:57;;;;;;;14.20;11.30;;;;;;;;;;4985883;28;20181;-80
2022/05/07 00:46:24;;;;;;;13.93;12.17;;;;;;;;;;4985110;28;20188;-80
2022/05/07 00:48:50;;;;;;;13.43;12.00;;;;;;;;;;4982941;28;20170;-79
2022/05/07 00:51:34;;;;;;;14.13;10.80;;;;;;;;;;4983179;28;20177;-80
2022/05/07 00:54:01;;;;;;;13.90;11.97;;;;;;;;;;4984361;28;20787;-80
2022/05/07 00:56:27;;;;;;;13.30;11.50;;;;;;;;;;4985278;28;20184;-80
2022/05/07 00:58:56;;;;;;;9.43;7.67;;;;;;;;;;4984524;28;20184;-80
2022/05/07 01:01:22;;;;;;;10.13;8.90;;;;;;;;;;4981156;28;20985;-80
2022/05/07 01:03:49;;;;;;;9.83;8.70;;;;;;;;;;4990085;28;20297;-80
2022/05/07 01:06:15;;;;;;;9.10;8.07;;;;;;;;;;4985010;28;20174;-80
2022/05/07 01:08:41;;;;;;;9.63;8.63;;;;;;;;;;4988611;28;20201;-80
2022/05/07 01:11:08;;;;;;;11.20;9.20;;;;;;;;;;4985669;28;20272;-80
2022/05/07 01:13:34;;;;;;;10.93;9.07;;;;;;;;;;4986589;28;20178;-80
2022/05/07 01:16:00;;;;;;;9.53;8.53;;;;;;;;;;4980098;28;20196;-79
2022/05/07 01:18:26;;;;;;;13.27;9.73;;;;;;;;;;4985209;28;20180;-80
2022/05/07 01:20:55;;;;;;;10.53;9.47;;;;;;;;;;4987798;28;20268;-80
2022/05/07 01:23:21;;;;;;;10.77;8.53;;;;;;;;;;4984150;28;20711;-80
2022/05/07 01:25:47;;;;;;;12.23;9.27;;;;;;;;;;4981306;28;20174;-80
2022/05/07 01:28:13;;;;;;;15.00;10.57;;;;;;;;;;4987848;28;20186;-80
2022/05/07 01:30:39;;;;;;;12.47;10.00;;;;;;;;;;4984668;28;20185;-80
2022/05/07 01:33:05;;;;;;;11.17;9.97;;;;;;;;;;4987625;28;20926;-81
2022/05/07 01:35:31;;;;;;;12.60;11.03;;;;;;;;;;4985054;28;20181;-80
2022/05/07 01:37:57;;;;;;;13.40;10.53;;;;;;;;;;4998936;28;20177;-80
2022/05/07 01:40:24;;;;;;;12.67;10.17;;;;;;;;;;4986702;28;20316;-80
2022/05/07 01:42:50;;;;;;;11.13;10.00;;;;;;;;;;4987716;28;20178;-80
2022/05/07 01:45:16;;;;;;;12.60;10.67;;;;;;;;;;4987242;28;20800;-80
2022/05/07 01:50:26;;;;;;;14.60;12.37;;;;;;;;;;4985327;28;20216;-80
2022/05/07 01:52:53;;;;;;;13.17;11.73;;;;;;;;;;4989094;28;20181;-80
2022/05/07 01:55:19;;;;;;;18.60;15.17;;;;;;;;;;4984947;28;20189;-80
2022/05/07 01:57:45;;;;;;;13.60;12.20;;;;;;;;;;4989743;28;20177;-81
2022/05/07 02:00:11;;;;;;;20.53;15.90;;;;;;;;;;4996066;28;21111;-80
2022/05/07 02:02:37;;;;;;;20.43;15.80;;;;;;;;;;4990312;28;20604;-80
2022/05/07 02:05:03;;;;;;;16.50;13.80;;;;;;;;;;4985460;28;20201;-80
2022/05/07 02:07:29;;;;;;;17.17;15.33;;;;;;;;;;4994175;28;20240;-80
2022/05/07 02:09:55;;;;;;;15.33;13.73;;;;;;;;;;4988707;28;20189;-80
2022/05/07 02:12:22;;;;;;;24.17;17.73;;;;;;;;;;4991242;28;20169;-80
2022/05/07 02:14:48;;;;;;;17.70;14.70;;;;;;;;;;4992407;28;20970;-80
2022/05/07 02:17:14;;;;;;;17.97;14.87;;;;;;;;;;5002623;28;20166;-80
2022/05/07 02:19:40;;;;;;;22.33;17.40;;;;;;;;;;5004784;28;20220;-81
2022/05/07 02:22:06;;;;;;;23.67;17.87;;;;;;;;;;4997943;28;20178;-80
2022/05/07 02:24:32;;;;;;;23.97;17.83;;;;;;;;;;5004359;28;20192;-80
2022/05/07 02:26:59;;;;;;;19.30;15.93;;;;;;;;;;5005407;28;20177;-80
2022/05/07 02:29:25;;;;;;;24.13;18.13;;;;;;;;;;5000078;28;20182;-80
2022/05/07 02:32:03;;;;;;;23.27;17.30;;;;;;;;;;4987218;28;21300;-80
2022/05/07 02:34:37;;;;;;;17.37;13.10;;;;;;;;;;4981487;28;20181;-80
2022/05/07 02:37:04;;;;;;;16.40;12.60;;;;;;;;;;4983818;28;20181;-80
2022/05/07 02:39:30;;;;;;;14.30;12.60;;;;;;;;;;4984429;28;20202;-80
2022/05/07 02:44:41;;;;;;;23.97;16.77;;;;;;;;;;4984277;28;20192;-79
2022/05/07 02:47:08;;;;;;;20.43;15.33;;;;;;;;;;4981961;28;20232;-80
2022/05/07 02:49:34;;;;;;;25.00;17.30;;;;;;;;;;4988214;28;20250;-80
2022/05/07 02:52:00;;;;;;;23.73;17.23;;;;;;;;;;4984156;28;20192;-80
2022/05/07 02:54:26;;;;;;;25.70;17.50;;;;;;;;;;4979128;28;21031;-79
2022/05/07 02:56:54;;;;;;;24.00;17.03;;;;;;;;;;4986607;28;20190;-79
2022/05/07 02:59:20;;;;;;;27.70;18.43;;;;;;;;;;4989952;28;20201;-80
2022/05/07 03:01:46;;;;;;;27.63;19.50;;;;;;;;;;4984839;28;20173;-80
2022/05/07 03:04:12;;;;;;;20.93;16.60;;;;;;;;;;4980586;28;21040;-80
2022/05/07 03:06:39;;;;;;;27.33;19.27;;;;;;;;;;4983056;28;20756;-79
2022/05/07 03:09:05;;;;;;;28.87;21.37;;;;;;;;;;4985242;28;20177;-79
2022/05/07 03:11:33;;;;;;;25.97;19.33;;;;;;;;;;4980290;28;20300;-80
2022/05/07 03:14:00;;;;;;;25.50;17.23;;;;;;;;;;4984595;28;20182;-80
2022/05/07 03:16:26;;;;;;;26.73;19.70;;;;;;;;;;4980637;28;20193;-80
2022/05/07 03:18:52;;;;;;;25.47;19.10;;;;;;;;;;4981574;28;20664;-79
2022/05/07 03:21:18;;;;;;;33.93;22.03;;;;;;;;;;4982959;28;20784;-80
2022/05/07 03:23:46;;;;;;;36.63;24.77;;;;;;;;;;4987566;28;20177;-80
2022/05/07 03:26:12;;;;;;;48.37;29.57;;;;;;;;;;4983729;28;20202;-80
2022/05/07 03:28:38;;;;;;;56.57;32.13;;;;;;;;;;4984558;28;20188;-79
2022/05/07 03:31:05;;;;;;;38.03;26.20;;;;;;;;;;4983975;28;21018;-80
2022/05/07 03:33:31;;;;;;;51.30;30.57;;;;;;;;;;4983044;28;20920;-79
2022/05/07 03:35:57;;;;;;;51.13;29.73;;;;;;;;;;4980324;28;20268;-80
2022/05/07 03:38:23;;;;;;;62.77;36.23;;;;;;;;;;4983859;28;20182;-80
2022/05/07 03:40:50;;;;;;;47.47;28.47;;;;;;;;;;4982577;28;20198;-79
2022/05/07 03:43:16;;;;;;;50.40;30.83;;;;;;;;;;4981049;28;20175;-79
2022/05/07 03:45:43;;;;;;;46.43;30.77;;;;;;;;;;4980335;28;20554;-79
2022/05/07 03:48:09;;;;;;;51.40;30.90;;;;;;;;;;4982347;28;20568;-79
2022/05/07 03:50:36;;;;;;;32.60;25.60;;;;;;;;;;4982305;28;20182;-79
2022/05/07 03:55:47;;;;;;;33.67;25.57;;;;;;;;;;4979641;28;20225;-80
2022/05/07 03:58:15;;;;;;;37.73;26.50;;;;;;;;;;4981680;28;20196;-79
2022/05/07 04:00:45;;;;;;;42.07;28.37;;;;;;;;;;4988560;28;21108;-79
2022/05/07 04:03:12;;;;;;;44.10;29.83;;;;;;;;;;4983208;28;20170;-79
2022/05/07 04:05:38;;;;;;;40.57;28.07;;;;;;;;;;4982215;28;20170;-79
2022/05/07 04:08:05;;;;;;;46.97;30.63;;;;;;;;;;4986034;28;20178;-80
2022/05/07 04:10:31;;;;;;;39.10;27.60;;;;;;;;;;4983769;28;20177;-80
2022/05/07 04:12:57;;;;;;;38.37;27.80;;;;;;;;;;4983724;28;20832;-79
2022/05/07 04:15:23;;;;;;;38.80;26.93;;;;;;;;;;4987008;28;20193;-79
2022/05/07 04:17:50;;;;;;;33.57;24.17;;;;;;;;;;4986950;28;20986;-79
2022/05/07 04:20:16;;;;;;;39.57;27.63;;;;;;;;;;4978651;28;20201;-80
2022/05/07 04:22:42;;;;;;;45.17;30.13;;;;;;;;;;4985824;28;20964;-79
2022/05/07 04:25:10;;;;;;;43.80;29.50;;;;;;;;;;4987366;28;20982;-79
2022/05/07 04:27:36;;;;;;;49.73;31.70;;;;;;;;;;4987294;28;20981;-79
2022/05/07 04:30:02;;;;;;;43.77;29.87;;;;;;;;;;4982764;28;20178;-79
2022/05/07 04:32:28;;;;;;;40.60;29.07;;;;;;;;;;4990397;28;20348;-80
2022/05/07 04:34:55;;;;;;;43.47;30.70;;;;;;;;;;4985817;28;20178;-79
2022/05/07 04:37:21;;;;;;;38.27;28.17;;;;;;;;;;4987972;28;20668;-79
2022/05/07 04:39:47;;;;;;;50.97;33.10;;;;;;;;;;4981924;28;20229;-79
2022/05/07 04:42:14;;;;;;;47.43;32.43;;;;;;;;;;4981635;28;20192;-79
2022/05/07 04:44:40;;;;;;;47.63;32.97;;;;;;;;;;4981342;28;20174;-79
2022/05/07 04:47:06;;;;;;;57.27;37.50;;;;;;;;;;4986673;28;20177;-79
2022/05/07 04:49:33;;;;;;;55.90;35.60;;;;;;;;;;4986025;28;20263;-79
2022/05/07 04:51:59;;;;;;;59.07;37.07;;;;;;;;;;4986483;28;20956;-80
2022/05/07 04:54:26;;;;;;;57.77;36.50;;;;;;;;;;4983471;28;21075;-80
2022/05/07 04:56:55;;;;;;;53.63;35.33;;;;;;;;;;4989324;28;20180;-80
2022/05/07 04:59:21;;;;;;;44.60;31.73;;;;;;;;;;4989566;28;21648;-79
2022/05/07 05:01:47;;;;;;;42.40;32.00;;;;;;;;;;4978434;28;20193;-80
2022/05/07 05:04:17;;;;;;;60.23;35.87;;;;;;;;;;4984878;28;20266;-80
2022/05/07 05:06:43;;;;;;;61.40;38.67;;;;;;;;;;4985498;28;20182;-80
2022/05/07 05:09:09;;;;;;;55.97;36.93;;;;;;;;;;4986445;28;20184;-80
2022/05/07 05:11:37;;;;;;;64.80;39.13;;;;;;;;;;4984139;28;20173;-80
2022/05/07 05:15:01;;;;;;;65.03;40.23;;;;;;;;;;4988351;28;20181;-80
2022/05/07 05:16:49;;;;;;;66.33;39.67;;;;;;;;;;4982918;28;20181;-80
2022/05/07 05:19:15;;;;;;;49.70;35.10;;;;;;;;;;4985294;28;20185;-80
2022/05/07 05:21:41;;;;;;;59.17;39.77;;;;;;;;;;4986052;28;20939;-80
2022/05/07 05:24:08;;;;;;;58.27;38.27;;;;;;;;;;4984765;28;21100;-80
2022/05/07 05:26:34;;;;;;;89.07;47.67;;;;;;;;;;4982721;28;20842;-80
2022/05/07 05:29:00;;;;;;;83.67;47.87;;;;;;;;;;4987548;28;20173;-79
2022/05/07 05:31:28;;;;;;;96.67;51.53;;;;;;;;;;4986282;28;20185;-80
2022/05/07 05:33:54;;;;;;;91.63;51.93;;;;;;;;;;4989287;28;20177;-80
2022/05/07 05:36:20;;;;;;;96.93;53.97;;;;;;;;;;4992569;28;21144;-80
2022/05/07 05:38:46;;;;;;;108.17;57.90;;;;;;;;;;4988395;28;20269;-80
2022/05/07 05:41:12;;;;;;;112.70;59.23;;;;;;;;;;4985898;28;20772;-80
2022/05/07 05:43:40;;;;;;;103.70;55.83;;;;;;;;;;4994528;28;20178;-80
2022/05/07 05:46:06;;;;;;;99.47;56.37;;;;;;;;;;4987687;28;20297;-80
2022/05/07 05:48:32;;;;;;;94.87;54.87;;;;;;;;;;4987229;28;20898;-80
2022/05/07 05:50:59;;;;;;;103.17;57.30;;;;;;;;;;4987177;28;20973;-80
2022/05/07 05:53:25;;;;;;;107.93;57.53;;;;;;;;;;4992224;28;20180;-80
2022/05/07 05:55:52;;;;;;;108.77;59.33;;;;;;;;;;4982487;28;20288;-80
2022/05/07 05:58:18;;;;;;;90.10;53.50;;;;;;;;;;4988283;28;20311;-79
2022/05/07 06:00:44;;;;;;;100.67;56.73;;;;;;;;;;4982013;28;20196;-81
2022/05/07 06:03:10;;;;;;;105.97;56.70;;;;;;;;;;4980394;28;20177;-80
2022/05/07 06:05:37;;;;;;;94.13;55.33;;;;;;;;;;4984483;28;20178;-79
2022/05/07 06:08:03;;;;;;;91.03;53.80;;;;;;;;;;4986911;28;21009;-79
2022/05/07 06:10:29;;;;;;;92.40;53.63;;;;;;;;;;4987419;28;20854;-79
2022/05/07 06:12:55;;;;;;;95.07;54.07;;;;;;;;;;4986424;28;20181;-79
2022/05/07 06:15:22;;;;;;;89.00;53.50;;;;;;;;;;4990487;28;20282;-79
2022/05/07 06:17:48;;;;;;;100.87;57.50;;;;;;;;;;4990696;28;20189;-79
2022/05/07 06:20:14;;;;;;;77.77;50.23;;;;;;;;;;4989959;28;20189;-79
2022/05/07 06:22:40;;;;;;;78.20;49.17;;;;;;;;;;4977891;28;20174;-79
2022/05/07 06:27:51;;;;;;;86.97;53.40;;;;;;;;;;4983897;28;20972;-78
2022/05/07 06:30:17;;;;;;;74.67;48.70;;;;;;;;;;4984365;28;20186;-79
2022/05/07 06:32:44;;;;;;;79.43;50.27;;;;;;;;;;4983547;28;20255;-78
2022/05/07 06:35:10;;;;;;;70.93;48.17;;;;;;;;;;4982049;28;20190;-79
2022/05/07 06:37:38;;;;;;;82.83;52.00;;;;;;;;;;4981657;28;20224;-79
2022/05/07 06:40:05;;;;;;;70.97;47.17;;;;;;;;;;4978541;28;20194;-79
2022/05/07 06:42:34;;;;;;;78.27;49.60;;;;;;;;;;4976041;28;20247;-79
2022/05/07 06:45:00;;;;;;;69.57;46.50;;;;;;;;;;4982146;28;20174;-78
2022/05/07 06:47:26;;;;;;;70.93;47.83;;;;;;;;;;4979621;28;20181;-79
2022/05/07 06:49:52;;;;;;;64.33;45.27;;;;;;;;;;4987384;28;20510;-78
2022/05/07 06:52:18;;;;;;;68.30;47.10;;;;;;;;;;4990180;28;20243;-78
2022/05/07 06:54:44;;;;;;;67.47;47.60;;;;;;;;;;4981711;28;20189;-78
2022/05/07 06:57:11;;;;;;;78.27;49.50;;;;;;;;;;4981588;28;20273;-78
2022/05/07 06:59:38;;;;;;;74.13;48.03;;;;;;;;;;4986340;28;20248;-79
2022/05/07 07:02:04;;;;;;;74.17;48.53;;;;;;;;;;4977488;28;20178;-78
2022/05/07 07:04:30;;;;;;;62.17;44.13;;;;;;;;;;4981986;28;20180;-78
2022/05/07 07:06:57;;;;;;;65.50;44.73;;;;;;;;;;4977921;28;20177;-78
2022/05/07 07:09:23;;;;;;;73.07;47.50;;;;;;;;;;4984399;28;21025;-79
2022/05/07 07:11:49;;;;;;;62.83;44.93;;;;;;;;;;4983658;28;20177;-79
2022/05/07 07:14:15;;;;;;;56.63;42.43;;;;;;;;;;4977067;28;20184;-79
2022/05/07 07:16:41;;;;;;;67.67;48.17;;;;;;;;;;4981836;28;20886;-78
2022/05/07 07:19:09;;;;;;;61.10;43.60;;;;;;;;;;4982413;28;21058;-80
2022/05/07 07:21:35;;;;;;;58.30;41.70;;;;;;;;;;4982146;28;20177;-80
2022/05/07 07:24:01;;;;;;;56.73;39.67;;;;;;;;;;4983964;28;20216;-80
2022/05/07 07:26:27;;;;;;;52.70;40.00;;;;;;;;;;4985219;28;20178;-80
2022/05/07 07:28:55;;;;;;;58.37;42.00;;;;;;;;;;4988398;28;20181;-80
2022/05/07 07:31:22;;;;;;;57.27;41.60;;;;;;;;;;4983040;28;20173;-80
2022/05/07 07:33:48;;;;;;;52.20;38.83;;;;;;;;;;4985462;28;20173;-80
2022/05/07 07:36:14;;;;;;;52.17;38.60;;;;;;;;;;4988150;28;20173;-80
2022/05/07 07:38:40;;;;;;;51.77;37.33;;;;;;;;;;4987033;28;20180;-81
2022/05/07 07:41:07;;;;;;;52.73;38.90;;;;;;;;;;4986058;28;20193;-80
2022/05/07 07:43:33;;;;;;;47.40;36.17;;;;;;;;;;4991856;28;20189;-80
2022/05/07 07:48:46;;;;;;;49.77;35.80;;;;;;;;;;4991256;28;20212;-80
2022/05/07 07:51:12;;;;;;;48.60;35.97;;;;;;;;;;4991947;28;20591;-80
2022/05/07 07:53:44;;;;;;;47.97;35.53;;;;;;;;;;4993517;28;20791;-80
2022/05/07 07:56:12;;;;;;;43.10;31.27;;;;;;;;;;4990463;28;20177;-80
2022/05/07 07:58:38;;;;;;;42.20;30.93;;;;;;;;;;4990349;28;20304;-80
2022/05/07 08:01:04;;;;;;;40.57;30.20;;;;;;;;;;4989641;28;21174;-80
2022/05/07 08:03:30;;;;;;;35.20;27.67;;;;;;;;;;4991008;28;20184;-80
2022/05/07 08:05:57;;;;;;;38.17;29.17;;;;;;;;;;4992304;28;20170;-79
2022/05/07 08:13:54;;;;;;;33.00;26.37;;;;;;;;;;4990255;28;20193;-79
2022/05/07 08:16:20;;;;;;;37.20;28.67;;;;;;;;;;4991002;28;20185;-79
2022/05/07 08:18:47;;;;;;;41.47;29.83;;;;;;;;;;4986971;28;20181;-78
2022/05/07 08:21:14;;;;;;;38.27;30.43;;;;;;;;;;4988489;28;20233;-79
2022/05/07 08:23:43;;;;;;;38.40;29.53;;;;;;;;;;4983165;28;20177;-80
2022/05/07 08:26:09;;;;;;;40.10;28.77;;;;;;;;;;4987363;28;20357;-80
2022/05/07 08:28:36;;;;;;;36.00;28.30;;;;;;;;;;4992422;28;20212;-81
2022/05/07 08:31:02;;;;;;;36.27;26.87;;;;;;;;;;4989377;28;20213;-80
2022/05/07 08:33:31;;;;;;;34.77;26.47;;;;;;;;;;4990956;28;20489;-80
2022/05/07 08:35:57;;;;;;;36.30;28.83;;;;;;;;;;4991955;28;20210;-80
2022/05/07 08:38:24;;;;;;;33.67;26.53;;;;;;;;;;4991858;28;20193;-80
2022/05/07 08:40:50;;;;;;;35.53;27.30;;;;;;;;;;4982164;28;20221;-80
2022/05/07 08:43:17;;;;;;;34.67;25.23;;;;;;;;;;4985202;28;20174;-79
2022/05/07 08:45:44;;;;;;;31.20;23.83;;;;;;;;;;4987017;28;20196;-80
2022/05/07 08:48:10;;;;;;;30.17;23.90;;;;;;;;;;4988405;28;21258;-79
2022/05/07 08:50:38;;;;;;;30.30;24.17;;;;;;;;;;4991305;28;20304;-79
2022/05/07 08:53:04;;;;;;;32.90;26.67;;;;;;;;;;4986214;28;20928;-79
2022/05/07 08:55:31;;;;;;;31.43;24.83;;;;;;;;;;4983502;28;20260;-79
2022/05/07 08:57:57;;;;;;;31.30;25.87;;;;;;;;;;4987863;28;20938;-80
2022/05/07 09:00:25;;;;;;;30.30;25.13;;;;;;;;;;4978280;28;20218;-80
2022/05/07 09:02:52;;;;;;;31.90;24.70;;;;;;;;;;4984770;28;22391;-80
2022/05/07 09:05:19;;;;;;;30.40;25.23;;;;;;;;;;4987288;28;20642;-79
2022/05/07 09:07:58;;;;;;;33.37;25.77;;;;;;;;;;4990515;28;20891;-80
2022/05/07 09:10:27;;;;;;;29.50;23.20;;;;;;;;;;4980439;28;21222;-79
2022/05/07 09:12:54;;;;;;;27.87;24.30;;;;;;;;;;4983048;28;21110;-80
2022/05/07 09:15:20;;;;;;;31.17;24.60;;;;;;;;;;4990130;28;20276;-81
2022/05/07 09:17:47;;;;;;;32.93;25.13;;;;;;;;;;4990877;28;20190;-80
2022/05/07 09:20:21;;;;;;;29.23;23.67;;;;;;;;;;4986937;28;20189;-81
2022/05/07 09:23:22;;;;;;;28.77;23.47;;;;;;;;;;4981795;28;20177;-81
2022/05/07 09:25:49;;;;;;;28.43;24.10;;;;;;;;;;4987448;28;20648;-80
2022/05/07 09:28:26;;;;;;;28.30;24.17;;;;;;;;;;4987858;28;20177;-80
2022/05/07 09:30:55;;;;;;;28.93;24.57;;;;;;;;;;4982060;28;20177;-80
2022/05/07 09:33:31;;;;;;;30.77;25.27;;;;;;;;;;4988367;28;20208;-80
2022/05/07 09:36:08;;;;;;;31.97;24.67;;;;;;;;;;4982607;28;20264;-80
2022/05/07 09:38:34;;;;;;;29.83;24.20;;;;;;;;;;4982370;28;20263;-80
2022/05/07 09:41:00;;;;;;;30.40;24.97;;;;;;;;;;4981502;28;20197;-80
2022/05/07 09:43:26;;;;;;;27.77;24.33;;;;;;;;;;4986805;28;20176;-80
2022/05/07 09:45:52;;;;;;;27.03;24.13;;;;;;;;;;4984865;28;20218;-81
2022/05/07 09:48:19;;;;;;;26.67;23.77;;;;;;;;;;4988673;28;20265;-81
2022/05/07 09:50:45;;;;;;;28.23;24.33;;;;;;;;;;4981966;28;20280;-81
2022/05/07 09:58:43;;;;;;;26.07;20.77;;;;;;;;;;4983819;28;20238;-81
2022/05/07 10:01:20;;;;;;;28.33;22.17;;;;;;;;;;4977262;28;20241;-80
2022/05/07 10:03:52;;;;;;;25.00;21.33;;;;;;;;;;4982273;28;20181;-81
2022/05/07 10:06:18;;;;;;;23.40;19.93;;;;;;;;;;4981022;28;20284;-81
2022/05/07 10:08:44;;;;;;;23.43;18.60;;;;;;;;;;4998048;28;20882;-81
2022/05/07 10:11:13;;;;;;;24.70;19.43;;;;;;;;;;4987126;28;20189;-81
2022/05/07 10:13:39;;;;;;;22.63;18.00;;;;;;;;;;4989778;28;20205;-80
2022/05/07 10:16:05;;;;;;;18.60;16.67;;;;;;;;;;4987455;28;20177;-80
2022/05/07 10:18:41;;;;;;;20.00;17.57;;;;;;;;;;4985641;28;20188;-80
2022/05/07 10:21:12;;;;;;;19.00;16.40;;;;;;;;;;4982361;28;20201;-80
2022/05/07 10:23:47;;;;;;;21.80;16.57;;;;;;;;;;4987927;28;20265;-80
2022/05/07 10:26:13;;;;;;;20.00;16.17;;;;;;;;;;4986225;28;20176;-80
2022/05/07 10:28:42;;;;;;;17.47;15.17;;;;;;;;;;4985505;28;20215;-80
2022/05/07 10:31:18;;;;;;;19.13;15.00;;;;;;;;;;4988282;28;20185;-81
2022/05/07 10:33:44;;;;;;;18.23;15.80;;;;;;;;;;4989721;28;20625;-81
2022/05/07 10:36:11;;;;;;;17.63;15.30;;;;;;;;;;4988227;28;20753;-81
2022/05/07 10:38:38;;;;;;;19.67;14.83;;;;;;;;;;4987338;28;20285;-80
2022/05/07 10:41:05;;;;;;;17.43;15.00;;;;;;;;;;4986909;28;20201;-81
2022/05/07 10:43:33;;;;;;;19.13;15.00;;;;;;;;;;4969531;28;20925;-80
2022/05/07 10:46:04;;;;;;;19.03;15.77;;;;;;;;;;4988290;28;20228;-81
2022/05/07 10:48:31;;;;;;;16.73;14.67;;;;;;;;;;4995405;28;20184;-82
2022/05/07 10:51:00;;;;;;;15.93;14.03;;;;;;;;;;4988919;28;20189;-82
2022/05/07 10:53:38;;;;;;;18.87;15.33;;;;;;;;;;4985797;28;20188;-81
2022/05/07 10:56:04;;;;;;;14.87;13.17;;;;;;;;;;4989090;28;20219;-82
2022/05/07 10:58:30;;;;;;;17.00;15.03;;;;;;;;;;4980178;28;20182;-82
2022/05/07 11:00:58;;;;;;;16.33;13.17;;;;;;;;;;4988403;28;20200;-82
2022/05/07 11:03:25;;;;;;;16.10;13.20;;;;;;;;;;4989794;28;20178;-81
2022/05/07 11:05:59;;;;;;;16.33;11.83;;;;;;;;;;4988894;28;20853;-81
2022/05/07 11:08:25;;;;;;;16.33;12.07;;;;;;;;;;4989923;28;20204;-81
2022/05/07 11:10:51;;;;;;;13.77;12.30;;;;;;;;;;4982440;28;21563;-81
2022/05/07 11:13:19;;;;;;;13.63;10.83;;;;;;;;;;4988564;28;20185;-81
2022/05/07 11:15:50;;;;;;;16.30;11.80;;;;;;;;;;4991972;28;20495;-81
2022/05/07 11:18:16;;;;;;;12.63;10.57;;;;;;;;;;4992586;28;20630;-80
2022/05/07 11:20:43;;;;;;;13.33;10.47;;;;;;;;;;4990240;28;20200;-80
2022/05/07 11:23:13;;;;;;;13.77;10.23;;;;;;;;;;4993268;28;20173;-80
2022/05/07 11:25:40;;;;;;;13.83;10.50;;;;;;;;;;4989816;28;20268;-80
2022/05/07 11:28:06;;;;;;;10.87;9.70;;;;;;;;;;4991715;28;20255;-80
2022/05/07 11:30:33;;;;;;;13.93;9.70;;;;;;;;;;4992037;28;20182;-80
2022/05/07 11:33:05;;;;;;;13.03;8.37;;;;;;;;;;4990995;28;21003;-81
2022/05/07 11:35:31;;;;;;;13.93;9.40;;;;;;;;;;4982436;28;20966;-80
2022/05/07 11:37:57;;;;;;;15.20;10.67;;;;;;;;;;4988908;28;20196;-80
2022/05/07 11:40:27;;;;;;;12.67;10.23;;;;;;;;;;4987934;28;20695;-81
2022/05/07 11:45:38;;;;;;;11.27;9.83;;;;;;;;;;4989114;28;20232;-81
2022/05/07 11:48:14;;;;;;;13.03;10.20;;;;;;;;;;4988546;28;20232;-81
2022/05/07 11:50:52;;;;;;;11.27;9.63;;;;;;;;;;4988825;28;20257;-81
2022/05/07 11:53:20;;;;;;;13.47;10.43;;;;;;;;;;4995228;28;20204;-81
2022/05/07 11:56:20;;;;;;;11.73;9.47;;;;;;;;;;4992567;28;21035;-81
2022/05/07 11:58:51;;;;;;;10.83;9.07;;;;;;;;;;4990343;28;20192;-81
2022/05/07 12:01:21;;;;;;;12.77;8.27;;;;;;;;;;4982883;28;20190;-80
2022/05/07 12:03:48;;;;;;;12.80;9.07;;;;;;;;;;4986839;28;20225;-80
2022/05/07 12:06:28;;;;;;;10.70;7.70;;;;;;;;;;4991460;28;20839;-79
2022/05/07 12:08:55;;;;;;;9.97;7.20;;;;;;;;;;4989961;28;20946;-80
2022/05/07 12:11:21;;;;;;;14.23;8.63;;;;;;;;;;4988558;28;20186;-80
2022/05/07 12:13:47;;;;;;;8.90;6.73;;;;;;;;;;4988225;28;20323;-80
2022/05/07 12:18:58;;;;;;;10.57;7.37;;;;;;;;;;4985857;28;20211;-80
2022/05/07 12:29:59;;;;;;;9.87;5.80;;;;;;;;;;4990110;28;20196;-80
2022/05/07 12:32:26;;;;;;;11.67;6.50;;;;;;;;;;4989691;28;20176;-80
2022/05/07 12:34:52;;;;;;;11.60;6.77;;;;;;;;;;4993267;28;20227;-81
2022/05/07 12:37:19;;;;;;;10.13;6.47;;;;;;;;;;4989108;28;20176;-80
2022/05/07 12:39:46;;;;;;;7.40;5.40;;;;;;;;;;4990726;28;20295;-79
2022/05/07 12:42:12;;;;;;;11.10;5.90;;;;;;;;;;4987295;28;20197;-79
2022/05/07 12:44:41;;;;;;;7.07;4.87;;;;;;;;;;4991587;28;20253;-79
2022/05/07 12:47:07;;;;;;;8.60;5.27;;;;;;;;;;4988388;28;20189;-79
2022/05/07 12:49:33;;;;;;;11.53;5.63;;;;;;;;;;4992770;28;20177;-79
2022/05/07 12:52:02;;;;;;;7.57;5.60;;;;;;;;;;4986275;28;20178;-78
2022/05/07 12:54:30;;;;;;;7.40;4.87;;;;;;;;;;4989568;28;20292;-79
2022/05/07 12:56:57;;;;;;;8.60;5.23;;;;;;;;;;4988400;28;20205;-80
2022/05/07 12:59:23;;;;;;;10.07;4.70;;;;;;;;;;4992029;28;20197;-79
2022/05/07 13:01:49;;;;;;;10.27;4.53;;;;;;;;;;4983975;28;20208;-79
2022/05/07 13:04:17;;;;;;;6.63;4.33;;;;;;;;;;4990775;28;20189;-79
2022/05/07 13:06:43;;;;;;;6.83;4.50;;;;;;;;;;4990755;28;20344;-80
2022/05/07 13:09:11;;;;;;;6.37;4.30;;;;;;;;;;4987112;28;20169;-79
2022/05/07 13:11:37;;;;;;;8.73;4.20;;;;;;;;;;4985406;28;20182;-79
2022/05/07 13:14:04;;;;;;;8.47;4.00;;;;;;;;;;4989976;28;20181;-79
2022/05/07 13:16:30;;;;;;;8.27;4.10;;;;;;;;;;4990003;28;20193;-79
2022/05/07 13:18:56;;;;;;;6.27;3.43;;;;;;;;;;4990756;28;20192;-79
2022/05/07 13:21:22;;;;;;;7.27;4.00;;;;;;;;;;4987470;28;20271;-79
2022/05/07 13:23:48;;;;;;;7.23;3.90;;;;;;;;;;4990312;28;20202;-80
2022/05/07 13:26:14;;;;;;;6.07;3.70;;;;;;;;;;4993464;28;20707;-80
2022/05/07 13:28:41;;;;;;;6.03;4.00;;;;;;;;;;4988358;28;20990;-79
2022/05/07 13:31:07;;;;;;;8.27;4.27;;;;;;;;;;4985778;28;20185;-79
2022/05/07 13:33:33;;;;;;;7.73;3.70;;;;;;;;;;4988642;28;20208;-80
2022/05/07 13:35:59;;;;;;;8.63;4.03;;;;;;;;;;4985895;28;20182;-80
2022/05/07 13:38:27;;;;;;;6.87;3.80;;;;;;;;;;4988249;28;20206;-80
2022/05/07 13:40:53;;;;;;;9.57;3.77;;;;;;;;;;4983831;28;20193;-80
2022/05/07 13:43:19;;;;;;;6.80;3.47;;;;;;;;;;4991321;28;20193;-80
2022/05/07 13:45:45;;;;;;;6.20;3.37;;;;;;;;;;4986204;28;20293;-80
2022/05/07 13:48:12;;;;;;;8.90;2.93;;;;;;;;;;4987435;28;20173;-79
2022/05/07 13:50:38;;;;;;;6.67;3.37;;;;;;;;;;4987039;28;20181;-79
2022/05/07 13:53:06;;;;;;;6.00;3.10;;;;;;;;;;4986122;28;20193;-79
2022/05/07 13:55:32;;;;;;;7.40;3.40;;;;;;;;;;4987629;28;20186;-79
2022/05/07 13:57:58;;;;;;;9.73;3.90;;;;;;;;;;4987023;28;20182;-78
2022/05/07 14:00:24;;;;;;;9.03;3.93;;;;;;;;;;4978499;28;20313;-78
2022/05/07 14:02:50;;;;;;;6.60;3.53;;;;;;;;;;4977668;28;20170;-78
2022/05/07 14:05:17;;;;;;;8.10;3.40;;;;;;;;;;4980446;28;20181;-78
2022/05/07 14:07:43;;;;;;;6.90;3.63;;;;;;;;;;4982286;28;20189;-78
2022/05/07 14:10:10;;;;;;;10.87;3.93;;;;;;;;;;4980935;28;20636;-78
2022/05/07 14:12:36;;;;;;;10.33;6.30;;;;;;;;;;4977794;28;20178;-79
2022/05/07 14:15:03;;;;;;;9.70;7.20;;;;;;;;;;4978802;28;20230;-78
2022/05/07 14:17:29;;;;;;;11.67;8.10;;;;;;;;;;4977554;28;20197;-79
2022/05/07 14:19:57;;;;;;;13.00;8.73;;;;;;;;;;4978949;28;20205;-79
2022/05/07 14:22:23;;;;;;;14.37;9.37;;;;;;;;;;4983105;28;20186;-78
2022/05/07 14:25:03;;;;;;;13.03;8.73;;;;;;;;;;4984028;28;20640;-79
2022/05/07 14:27:30;;;;;;;13.53;10.30;;;;;;;;;;4984519;28;20177;-79
2022/05/07 14:29:56;;;;;;;15.37;9.80;;;;;;;;;;4981705;28;20207;-78
2022/05/07 14:32:42;;;;;;;13.60;8.83;;;;;;;;;;4981092;28;20992;-79
2022/05/07 14:35:11;;;;;;;12.70;9.13;;;;;;;;;;4966136;28;20227;-78
2022/05/07 14:46:49;;;;;;;14.97;10.40;;;;;;;;;;4988527;28;20215;-79
2022/05/07 14:49:15;;;;;;;11.50;9.47;;;;;;;;;;4982884;28;20743;-79
2022/05/07 14:51:42;;;;;;;14.87;9.13;;;;;;;;;;4983982;28;20178;-79
2022/05/07 14:54:08;;;;;;;12.73;9.70;;;;;;;;;;4983566;28;20208;-79
2022/05/07 14:56:37;;;;;;;16.87;10.67;;;;;;;;;;4982901;28;20483;-79
2022/05/07 14:59:03;;;;;;;15.83;12.10;;;;;;;;;;4983803;28;20280;-79
2022/05/07 15:01:29;;;;;;;14.50;12.77;;;;;;;;;;4986412;28;20197;-79
2022/05/07 15:03:55;;;;;;;19.60;15.73;;;;;;;;;;4985198;28;20174;-79
2022/05/07 15:06:21;;;;;;;16.47;13.90;;;;;;;;;;4986442;28;20249;-79
2022/05/07 15:11:32;;;;;;;23.10;18.37;;;;;;;;;;4980824;28;20176;-79
2022/05/07 15:14:01;;;;;;;27.63;22.20;;;;;;;;;;4982090;28;20181;-79
2022/05/07 15:16:27;;;;;;;30.70;24.40;;;;;;;;;;4981826;28;20185;-79